Amsterdam, MT

1:20 AM MDT on October 25, 2014 (GMT -0600)
Mooney | Change Station
CLOSE
Current Station
Airport
Location: Butte,
Elevation: 5545 ft
Nearby Weather Stations

Elev 5545 ft 45.95 °N, 112.50 °W | Updated 27 minutes ago

Clear
Clear
35 °F
Feels Like 35 °F
N
0
Wind Variable Wind from North

Today
High -- | Low -- °F
--% Chance of Precip.
Yesterday
High -- | Low -- °F
Precip. -- in
7:55 AM 6:22 PM
New Moon, 2% visible
Pressure 30.12 in
Visibility 10.0 miles
Clouds Clear
Dew Point 34 °F
Humidity 96%
Rainfall 0.00 in
Snow Depth Not available.
UV 0 out of 12
Pollen 1.30 out of 12
Air Quality Not available.
Flu Activity No Activity
METAR KBTM 250653Z AUTO 00000KT 10SM CLR 02/01 A3011 RMK AO2 SLP197 T00170011 400830011

More Conditions Fewer Conditions

Pressure 30.12 in
Visibility 10.0 miles
Clouds Clear
Dew Point 34 °F
Humidity 96%
Rainfall 0.00 in
Snow Depth Not available.
UV 0 out of 12
Pollen 1.30 out of 12
Air Quality Not available.
Flu Activity No Activity
METAR KBTM 250653Z AUTO 00000KT 10SM CLR 02/01 A3011 RMK AO2 SLP197 T00170011 400830011

More Conditions Fewer Conditions

10-Day Weather Forecast

Almanac

Astronomy

Oct. 25, 2014 Rise Set
Actual Time 7:55 AM MDT 6:22 PM MDT
Civil Twilight 7:25 AM MDT 6:52 PM MDT
Nautical Twilight 6:50 AM MDT 7:27 PM MDT
Astronomical Twilight 6:15 AM MDT 8:02 PM MDT
Moon 9:42 AM MDT 7:43 PM MDT
Length of Visible Light 11h 27m
Length of Day
10h 26m
Tomorrow will be 3m 0s shorter.
New Moon, 2% of the Moon is Illuminated
Today
New Moon
Oct 30
First Quarter
Nov 6
Full
Nov 14
Last Quarter
Nov 22
New

Today's Extremes

State Highs State Lows

Community

WunderPhotos

Upload Photos

1,764,789 photos uploaded!

Nearby

Snow Depth

Station Depth Elevation
Sacajawea 1 in 6550 ft
Lick Creek 0 in 6860 ft
Brackett Creek 1 in 7320 ft
Albro Lake 0 in 8300 ft
Lower Twin 0 in 7900 ft

Earthquake Activity

City Distance Mag. Time & Date
No recent earthquake activity has been reported nearby.
Minimum magnitude displayed is 2.5.

Coastal Water Temperatures

Place Temperature
No Stations Reporting

Nearby Weather Stations